sensor_id;sensor_type;location;lat;lon;timestamp;pressure;altitude;pressure_sealevel;temperature;humidity
51067;BME280;37112;45.892;-123.962;2023-06-19T00:02:03;101237.11;;;15.45;63.13
51067;BME280;37112;45.892;-123.962;2023-06-19T00:04:34;101238.14;;;15.37;63.99
51067;BME280;37112;45.892;-123.962;2023-06-19T00:07:08;101237.89;;;15.40;64.52
51067;BME280;37112;45.892;-123.962;2023-06-19T00:09:39;101237.73;;;15.39;64.12
51067;BME280;37112;45.892;-123.962;2023-06-19T00:11:59;101234.67;;;15.38;64.26
51067;BME280;37112;45.892;-123.962;2023-06-19T00:14:31;101235.13;;;15.37;64.30
51067;BME280;37112;45.892;-123.962;2023-06-19T00:17:01;101232.20;;;15.28;64.04
51067;BME280;37112;45.892;-123.962;2023-06-19T00:19:32;101233.83;;;15.12;62.66
51067;BME280;37112;45.892;-123.962;2023-06-19T00:22:05;101235.90;;;14.99;63.51
51067;BME280;37112;45.892;-123.962;2023-06-19T00:24:37;101235.11;;;14.93;64.41
51067;BME280;37112;45.892;-123.962;2023-06-19T00:27:00;101234.88;;;14.98;65.32
51067;BME280;37112;45.892;-123.962;2023-06-19T00:29:31;101231.58;;;15.04;64.74
51067;BME280;37112;45.892;-123.962;2023-06-19T00:32:03;101230.48;;;15.09;64.76
51067;BME280;37112;45.892;-123.962;2023-06-19T00:34:25;101228.46;;;15.23;64.93
51067;BME280;37112;45.892;-123.962;2023-06-19T00:36:55;101227.04;;;15.46;64.91
51067;BME280;37112;45.892;-123.962;2023-06-19T00:39:27;101222.68;;;15.62;64.02
51067;BME280;37112;45.892;-123.962;2023-06-19T00:41:58;101222.41;;;15.75;63.47
51067;BME280;37112;45.892;-123.962;2023-06-19T00:44:30;101225.89;;;15.76;63.10
51067;BME280;37112;45.892;-123.962;2023-06-19T00:47:01;101222.19;;;15.75;63.27
51067;BME280;37112;45.892;-123.962;2023-06-19T00:49:32;101219.58;;;15.78;63.64
51067;BME280;37112;45.892;-123.962;2023-06-19T00:52:04;101218.09;;;15.75;63.48
51067;BME280;37112;45.892;-123.962;2023-06-19T00:54:35;101220.17;;;15.67;63.47
51067;BME280;37112;45.892;-123.962;2023-06-19T00:57:06;101215.48;;;15.54;63.20
51067;BME280;37112;45.892;-123.962;2023-06-19T00:59:37;101212.49;;;15.40;63.37
51067;BME280;37112;45.892;-123.962;2023-06-19T01:02:09;101214.55;;;15.27;63.40
51067;BME280;37112;45.892;-123.962;2023-06-19T01:04:41;101211.48;;;15.16;63.63
51067;BME280;37112;45.892;-123.962;2023-06-19T01:07:05;101210.99;;;15.14;64.20
51067;BME280;37112;45.892;-123.962;2023-06-19T01:09:43;101218.70;;;15.27;65.22
51067;BME280;37112;45.892;-123.962;2023-06-19T01:12:18;101218.05;;;15.46;65.49
51067;BME280;37112;45.892;-123.962;2023-06-19T01:14:53;101217.86;;;15.60;64.79
51067;BME280;37112;45.892;-123.962;2023-06-19T01:17:26;101216.39;;;15.78;64.65
51067;BME280;37112;45.892;-123.962;2023-06-19T01:20:22;101220.34;;;15.96;64.71
51067;BME280;37112;45.892;-123.962;2023-06-19T01:22:54;101220.51;;;15.98;64.36
51067;BME280;37112;45.892;-123.962;2023-06-19T01:25:26;101219.08;;;16.02;63.42
51067;BME280;37112;45.892;-123.962;2023-06-19T01:27:56;101216.38;;;15.94;63.13
51067;BME280;37112;45.892;-123.962;2023-06-19T01:30:27;101213.63;;;15.97;63.36
51067;BME280;37112;45.892;-123.962;2023-06-19T01:33:03;101212.52;;;16.01;63.55
51067;BME280;37112;45.892;-123.962;2023-06-19T01:35:38;101213.56;;;15.91;62.55
51067;BME280;37112;45.892;-123.962;2023-06-19T01:38:10;101210.41;;;15.77;63.15
51067;BME280;37112;45.892;-123.962;2023-06-19T01:40:43;101209.84;;;15.66;63.02
51067;BME280;37112;45.892;-123.962;2023-06-19T01:43:14;101213.80;;;15.57;63.02
51067;BME280;37112;45.892;-123.962;2023-06-19T01:45:45;101212.77;;;15.45;62.53
51067;BME280;37112;45.892;-123.962;2023-06-19T01:48:16;101209.80;;;15.33;62.76
51067;BME280;37112;45.892;-123.962;2023-06-19T01:50:49;101208.44;;;15.39;63.32
51067;BME280;37112;45.892;-123.962;2023-06-19T01:53:20;101207.28;;;15.42;63.42
51067;BME280;37112;45.892;-123.962;2023-06-19T01:55:51;101209.34;;;15.39;63.23
51067;BME280;37112;45.892;-123.962;2023-06-19T01:58:22;101209.64;;;15.38;63.68
51067;BME280;37112;45.892;-123.962;2023-06-19T02:00:52;101209.48;;;15.46;63.26
51067;BME280;37112;45.892;-123.962;2023-06-19T02:03:23;101210.76;;;15.52;62.92
51067;BME280;37112;45.892;-123.962;2023-06-19T02:05:55;101210.82;;;15.63;62.44
51067;BME280;37112;45.892;-123.962;2023-06-19T02:08:26;101206.61;;;15.55;62.24
51067;BME280;37112;45.892;-123.962;2023-06-19T02:10:56;101207.63;;;15.42;61.50
51067;BME280;37112;45.892;-123.962;2023-06-19T02:13:27;101211.88;;;15.29;61.70
51067;BME280;37112;45.892;-123.962;2023-06-19T02:15:58;101208.92;;;15.21;61.41
51067;BME280;37112;45.892;-123.962;2023-06-19T02:18:28;101210.08;;;15.29;62.61
51067;BME280;37112;45.892;-123.962;2023-06-19T02:20:59;101213.13;;;15.27;62.03
51067;BME280;37112;45.892;-123.962;2023-06-19T02:23:29;101213.00;;;15.17;61.98
51067;BME280;37112;45.892;-123.962;2023-06-19T02:26:00;101219.67;;;14.98;60.89
51067;BME280;37112;45.892;-123.962;2023-06-19T02:28:31;101216.93;;;14.76;61.01
51067;BME280;37112;45.892;-123.962;2023-06-19T02:31:02;101218.04;;;14.55;61.36
51067;BME280;37112;45.892;-123.962;2023-06-19T02:33:32;101218.81;;;14.40;62.08
51067;BME280;37112;45.892;-123.962;2023-06-19T02:36:03;101219.71;;;14.28;62.65
51067;BME280;37112;45.892;-123.962;2023-06-19T02:38:34;101221.84;;;14.21;63.27
51067;BME280;37112;45.892;-123.962;2023-06-19T02:41:05;101219.21;;;14.20;63.72
51067;BME280;37112;45.892;-123.962;2023-06-19T02:43:36;101218.41;;;14.29;64.15
51067;BME280;37112;45.892;-123.962;2023-06-19T02:46:08;101221.52;;;14.30;63.78
51067;BME280;37112;45.892;-123.962;2023-06-19T02:48:40;101224.45;;;14.27;63.78
51067;BME280;37112;45.892;-123.962;2023-06-19T02:51:12;101222.67;;;14.21;63.72
51067;BME280;37112;45.892;-123.962;2023-06-19T02:53:42;101221.81;;;14.19;63.78
51067;BME280;37112;45.892;-123.962;2023-06-19T02:56:14;101221.69;;;14.18;63.95
51067;BME280;37112;45.892;-123.962;2023-06-19T02:58:44;101219.78;;;14.15;63.89
51067;BME280;37112;45.892;-123.962;2023-06-19T03:01:15;101220.30;;;14.08;63.60
51067;BME280;37112;45.892;-123.962;2023-06-19T03:03:36;101215.87;;;14.01;63.46
51067;BME280;37112;45.892;-123.962;2023-06-19T03:06:10;101214.85;;;13.95;63.79
51067;BME280;37112;45.892;-123.962;2023-06-19T03:08:42;101213.40;;;13.90;64.00
51067;BME280;37112;45.892;-123.962;2023-06-19T03:11:13;101211.34;;;13.87;64.17
51067;BME280;37112;45.892;-123.962;2023-06-19T03:13:47;101211.27;;;13.83;64.15
51067;BME280;37112;45.892;-123.962;2023-06-19T03:16:18;101212.60;;;13.74;64.09
51067;BME280;37112;45.892;-123.962;2023-06-19T03:18:50;101213.38;;;13.69;64.29
51067;BME280;37112;45.892;-123.962;2023-06-19T03:21:40;101214.53;;;13.60;64.68
51067;BME280;37112;45.892;-123.962;2023-06-19T03:24:10;101211.16;;;13.55;65.26
51067;BME280;37112;45.892;-123.962;2023-06-19T03:26:41;101212.45;;;13.54;65.58
51067;BME280;37112;45.892;-123.962;2023-06-19T03:29:12;101212.48;;;13.54;65.87
51067;BME280;37112;45.892;-123.962;2023-06-19T03:31:43;101214.86;;;13.58;66.09
51067;BME280;37112;45.892;-123.962;2023-06-19T03:34:15;101210.77;;;13.60;65.89
51067;BME280;37112;45.892;-123.962;2023-06-19T03:36:46;101212.02;;;13.63;65.80
51067;BME280;37112;45.892;-123.962;2023-06-19T03:39:16;101207.16;;;13.63;65.79
51067;BME280;37112;45.892;-123.962;2023-06-19T03:41:47;101209.38;;;13.65;65.96
51067;BME280;37112;45.892;-123.962;2023-06-19T03:44:18;101210.33;;;13.69;66.03
51067;BME280;37112;45.892;-123.962;2023-06-19T03:46:49;101210.20;;;13.71;66.03
51067;BME280;37112;45.892;-123.962;2023-06-19T03:49:20;101208.14;;;13.67;66.09
51067;BME280;37112;45.892;-123.962;2023-06-19T03:51:41;101210.08;;;13.65;66.05
51067;BME280;37112;45.892;-123.962;2023-06-19T03:54:12;101209.34;;;13.60;66.05
51067;BME280;37112;45.892;-123.962;2023-06-19T03:56:43;101209.09;;;13.54;66.06
51067;BME280;37112;45.892;-123.962;2023-06-19T03:59:14;101208.77;;;13.51;66.31
51067;BME280;37112;45.892;-123.962;2023-06-19T04:01:45;101211.02;;;13.45;65.99
51067;BME280;37112;45.892;-123.962;2023-06-19T04:04:16;101211.10;;;13.38;66.09
51067;BME280;37112;45.892;-123.962;2023-06-19T04:06:46;101210.86;;;13.34;65.93
51067;BME280;37112;45.892;-123.962;2023-06-19T04:09:17;101211.48;;;13.26;65.56
51067;BME280;37112;45.892;-123.962;2023-06-19T04:11:48;101214.63;;;13.19;65.59
51067;BME280;37112;45.892;-123.962;2023-06-19T04:14:18;101215.88;;;13.11;65.50
51067;BME280;37112;45.892;-123.962;2023-06-19T04:16:49;101219.34;;;13.05;65.65
51067;BME280;37112;45.892;-123.962;2023-06-19T04:19:20;101221.52;;;12.97;65.70
51067;BME280;37112;45.892;-123.962;2023-06-19T04:21:51;101224.98;;;12.88;65.78
51067;BME280;37112;45.892;-123.962;2023-06-19T04:24:23;101219.16;;;12.85;65.93
51067;BME280;37112;45.892;-123.962;2023-06-19T04:26:54;101222.16;;;12.82;65.85
51067;BME280;37112;45.892;-123.962;2023-06-19T04:29:25;101220.87;;;12.80;65.98
51067;BME280;37112;45.892;-123.962;2023-06-19T04:32:02;101221.93;;;12.78;66.08
51067;BME280;37112;45.892;-123.962;2023-06-19T04:34:40;101220.70;;;12.77;66.12
51067;BME280;37112;45.892;-123.962;2023-06-19T04:37:14;101224.92;;;12.76;66.17
51067;BME280;37112;45.892;-123.962;2023-06-19T04:39:47;101226.33;;;12.73;65.98
51067;BME280;37112;45.892;-123.962;2023-06-19T04:42:18;101227.22;;;12.71;65.91
51067;BME280;37112;45.892;-123.962;2023-06-19T04:44:50;101224.70;;;12.68;66.04
51067;BME280;37112;45.892;-123.962;2023-06-19T04:47:22;101230.33;;;12.65;66.15
51067;BME280;37112;45.892;-123.962;2023-06-19T04:50:08;101229.20;;;12.58;66.40
51067;BME280;37112;45.892;-123.962;2023-06-19T04:52:40;101232.88;;;12.50;66.65
51067;BME280;37112;45.892;-123.962;2023-06-19T04:55:11;101234.52;;;12.44;66.91
51067;BME280;37112;45.892;-123.962;2023-06-19T04:57:42;101239.34;;;12.39;67.13
51067;BME280;37112;45.892;-123.962;2023-06-19T05:00:22;101238.25;;;12.32;67.25
51067;BME280;37112;45.892;-123.962;2023-06-19T05:02:53;101234.20;;;12.23;67.33
51067;BME280;37112;45.892;-123.962;2023-06-19T05:05:22;101234.91;;;12.15;67.51
51067;BME280;37112;45.892;-123.962;2023-06-19T05:07:52;101234.09;;;12.08;67.72
51067;BME280;37112;45.892;-123.962;2023-06-19T05:10:23;101236.38;;;12.00;67.68
51067;BME280;37112;45.892;-123.962;2023-06-19T05:12:54;101237.66;;;11.86;67.56
51067;BME280;37112;45.892;-123.962;2023-06-19T05:15:26;101241.21;;;11.78;67.88
51067;BME280;37112;45.892;-123.962;2023-06-19T05:17:57;101243.16;;;11.72;68.13
51067;BME280;37112;45.892;-123.962;2023-06-19T05:20:41;101239.02;;;11.64;68.39
51067;BME280;37112;45.892;-123.962;2023-06-19T05:23:13;101236.05;;;11.58;68.66
51067;BME280;37112;45.892;-123.962;2023-06-19T05:25:43;101234.80;;;11.50;68.65
51067;BME280;37112;45.892;-123.962;2023-06-19T05:28:14;101232.11;;;11.42;68.86
51067;BME280;37112;45.892;-123.962;2023-06-19T05:30:44;101230.89;;;11.33;69.11
51067;BME280;37112;45.892;-123.962;2023-06-19T05:32:58;101231.15;;;11.26;69.20
51067;BME280;37112;45.892;-123.962;2023-06-19T05:35:29;101224.70;;;11.18;69.43
51067;BME280;37112;45.892;-123.962;2023-06-19T05:37:53;101228.41;;;11.13;69.46
51067;BME280;37112;45.892;-123.962;2023-06-19T05:40:23;101232.65;;;11.04;69.69
51067;BME280;37112;45.892;-123.962;2023-06-19T05:42:54;101230.55;;;10.95;69.76
51067;BME280;37112;45.892;-123.962;2023-06-19T05:45:25;101231.95;;;10.87;69.98
51067;BME280;37112;45.892;-123.962;2023-06-19T05:47:56;101229.36;;;10.80;70.04
51067;BME280;37112;45.892;-123.962;2023-06-19T05:50:22;101224.86;;;10.72;70.25
51067;BME280;37112;45.892;-123.962;2023-06-19T05:52:52;101223.22;;;10.61;70.24
51067;BME280;37112;45.892;-123.962;2023-06-19T05:55:23;101221.84;;;10.51;70.47
51067;BME280;37112;45.892;-123.962;2023-06-19T05:57:56;101218.30;;;10.45;70.73
51067;BME280;37112;45.892;-123.962;2023-06-19T06:00:28;101219.28;;;10.38;70.99
51067;BME280;37112;45.892;-123.962;2023-06-19T06:02:59;101218.40;;;10.31;71.23
51067;BME280;37112;45.892;-123.962;2023-06-19T06:05:21;101221.27;;;10.27;71.43
51067;BME280;37112;45.892;-123.962;2023-06-19T06:07:54;101219.05;;;10.23;71.40
51067;BME280;37112;45.892;-123.962;2023-06-19T06:10:27;101218.21;;;10.18;71.71
51067;BME280;37112;45.892;-123.962;2023-06-19T06:12:58;101219.90;;;10.14;71.79
51067;BME280;37112;45.892;-123.962;2023-06-19T06:15:29;101222.93;;;10.08;71.93
51067;BME280;37112;45.892;-123.962;2023-06-19T06:17:59;101221.20;;;10.04;72.32
51067;BME280;37112;45.892;-123.962;2023-06-19T06:20:32;101226.20;;;9.97;72.35
51067;BME280;37112;45.892;-123.962;2023-06-19T06:23:04;101223.90;;;9.91;72.56
51067;BME280;37112;45.892;-123.962;2023-06-19T06:25:34;101224.02;;;9.88;72.90
51067;BME280;37112;45.892;-123.962;2023-06-19T06:28:06;101225.95;;;9.89;73.16
51067;BME280;37112;45.892;-123.962;2023-06-19T06:30:36;101225.66;;;9.91;73.42
51067;BME280;37112;45.892;-123.962;2023-06-19T06:33:07;101226.58;;;9.93;73.84
51067;BME280;37112;45.892;-123.962;2023-06-19T06:35:38;101226.64;;;9.98;74.18
51067;BME280;37112;45.892;-123.962;2023-06-19T06:38:09;101225.19;;;10.05;74.41
51067;BME280;37112;45.892;-123.962;2023-06-19T06:40:39;101217.85;;;10.09;74.51
51067;BME280;37112;45.892;-123.962;2023-06-19T06:43:10;101217.55;;;10.11;74.52
51067;BME280;37112;45.892;-123.962;2023-06-19T06:45:40;101212.75;;;10.12;74.58
51067;BME280;37112;45.892;-123.962;2023-06-19T06:48:11;101211.70;;;10.12;74.76
51067;BME280;37112;45.892;-123.962;2023-06-19T06:50:43;101214.66;;;10.13;74.94
51067;BME280;37112;45.892;-123.962;2023-06-19T06:53:12;101207.10;;;10.11;75.10
51067;BME280;37112;45.892;-123.962;2023-06-19T06:55:43;101208.75;;;10.10;75.34
51067;BME280;37112;45.892;-123.962;2023-06-19T06:58:14;101208.52;;;10.11;75.57
51067;BME280;37112;45.892;-123.962;2023-06-19T07:00:46;101212.06;;;10.12;75.64
51067;BME280;37112;45.892;-123.962;2023-06-19T07:03:17;101216.08;;;10.10;75.72
51067;BME280;37112;45.892;-123.962;2023-06-19T07:05:48;101217.89;;;10.06;75.86
51067;BME280;37112;45.892;-123.962;2023-06-19T07:08:19;101216.14;;;10.02;76.06
51067;BME280;37112;45.892;-123.962;2023-06-19T07:10:51;101220.88;;;9.97;76.11
51067;BME280;37112;45.892;-123.962;2023-06-19T07:13:21;101218.19;;;9.94;76.23
51067;BME280;37112;45.892;-123.962;2023-06-19T07:15:54;101217.47;;;9.91;76.61
51067;BME280;37112;45.892;-123.962;2023-06-19T07:18:23;101219.59;;;9.91;76.87
51067;BME280;37112;45.892;-123.962;2023-06-19T07:20:54;101214.34;;;9.90;77.01
51067;BME280;37112;45.892;-123.962;2023-06-19T07:23:26;101213.63;;;9.90;77.17
51067;BME280;37112;45.892;-123.962;2023-06-19T07:25:57;101210.34;;;9.89;77.32
51067;BME280;37112;45.892;-123.962;2023-06-19T07:28:29;101208.36;;;9.90;77.45
51067;BME280;37112;45.892;-123.962;2023-06-19T07:31:01;101210.20;;;9.88;77.53
51067;BME280;37112;45.892;-123.962;2023-06-19T07:33:32;101207.68;;;9.86;77.59
51067;BME280;37112;45.892;-123.962;2023-06-19T07:36:05;101206.50;;;9.82;77.78
51067;BME280;37112;45.892;-123.962;2023-06-19T07:38:36;101203.86;;;9.78;77.91
51067;BME280;37112;45.892;-123.962;2023-06-19T07:41:09;101199.71;;;9.73;77.90
51067;BME280;37112;45.892;-123.962;2023-06-19T07:43:40;101198.11;;;9.70;78.25
51067;BME280;37112;45.892;-123.962;2023-06-19T07:46:11;101196.95;;;9.68;78.39
51067;BME280;37112;45.892;-123.962;2023-06-19T07:48:43;101196.10;;;9.68;78.66
51067;BME280;37112;45.892;-123.962;2023-06-19T07:51:15;101201.30;;;9.67;78.84
51067;BME280;37112;45.892;-123.962;2023-06-19T07:53:45;101203.52;;;9.68;79.00
51067;BME280;37112;45.892;-123.962;2023-06-19T07:56:17;101202.55;;;9.69;79.17
51067;BME280;37112;45.892;-123.962;2023-06-19T07:58:48;101199.45;;;9.71;79.17
51067;BME280;37112;45.892;-123.962;2023-06-19T08:01:19;101197.44;;;9.72;79.35
51067;BME280;37112;45.892;-123.962;2023-06-19T08:03:55;101199.13;;;9.74;79.53
51067;BME280;37112;45.892;-123.962;2023-06-19T08:06:27;101201.27;;;9.73;79.55
51067;BME280;37112;45.892;-123.962;2023-06-19T08:08:57;101200.61;;;9.72;79.51
51067;BME280;37112;45.892;-123.962;2023-06-19T08:11:28;101201.13;;;9.70;79.51
51067;BME280;37112;45.892;-123.962;2023-06-19T08:14:00;101195.06;;;9.64;79.37
51067;BME280;37112;45.892;-123.962;2023-06-19T08:16:24;101195.48;;;9.60;79.32
51067;BME280;37112;45.892;-123.962;2023-06-19T08:18:55;101193.77;;;9.56;79.60
51067;BME280;37112;45.892;-123.962;2023-06-19T08:21:26;101193.77;;;9.53;79.67
51067;BME280;37112;45.892;-123.962;2023-06-19T08:23:58;101196.81;;;9.48;79.62
51067;BME280;37112;45.892;-123.962;2023-06-19T08:26:28;101194.71;;;9.45;79.56
51067;BME280;37112;45.892;-123.962;2023-06-19T08:28:59;101194.35;;;9.42;79.66
51067;BME280;37112;45.892;-123.962;2023-06-19T08:31:30;101189.96;;;9.38;79.62
51067;BME280;37112;45.892;-123.962;2023-06-19T08:34:03;101185.80;;;9.33;79.60
51067;BME280;37112;45.892;-123.962;2023-06-19T08:36:29;101183.59;;;9.28;79.81
51067;BME280;37112;45.892;-123.962;2023-06-19T08:38:59;101180.43;;;9.24;79.87
51067;BME280;37112;45.892;-123.962;2023-06-19T08:41:34;101180.69;;;9.19;79.93
51067;BME280;37112;45.892;-123.962;2023-06-19T08:44:05;101179.11;;;9.16;80.13
51067;BME280;37112;45.892;-123.962;2023-06-19T08:46:35;101178.59;;;9.12;80.24
51067;BME280;37112;45.892;-123.962;2023-06-19T08:49:19;101174.30;;;9.10;80.41
51067;BME280;37112;45.892;-123.962;2023-06-19T08:51:39;101178.52;;;9.07;80.46
51067;BME280;37112;45.892;-123.962;2023-06-19T08:54:11;101174.07;;;9.05;80.46
51067;BME280;37112;45.892;-123.962;2023-06-19T08:56:42;101173.08;;;9.04;80.47
51067;BME280;37112;45.892;-123.962;2023-06-19T08:59:15;101171.77;;;9.01;80.52
51067;BME280;37112;45.892;-123.962;2023-06-19T09:01:50;101171.71;;;8.99;80.54
51067;BME280;37112;45.892;-123.962;2023-06-19T09:04:23;101168.48;;;8.97;80.59
51067;BME280;37112;45.892;-123.962;2023-06-19T09:06:55;101169.31;;;8.94;80.58
51067;BME280;37112;45.892;-123.962;2023-06-19T09:09:27;101165.97;;;8.90;80.63
51067;BME280;37112;45.892;-123.962;2023-06-19T09:12:13;101167.38;;;8.87;80.49
51067;BME280;37112;45.892;-123.962;2023-06-19T09:14:45;101168.20;;;8.85;80.57
51067;BME280;37112;45.892;-123.962;2023-06-19T09:17:24;101168.70;;;8.82;80.57
51067;BME280;37112;45.892;-123.962;2023-06-19T09:19:56;101171.30;;;8.80;80.67
51067;BME280;37112;45.892;-123.962;2023-06-19T09:22:28;101173.84;;;8.79;80.71
51067;BME280;37112;45.892;-123.962;2023-06-19T09:24:49;101169.55;;;8.76;80.65
51067;BME280;37112;45.892;-123.962;2023-06-19T09:27:22;101172.59;;;8.76;80.76
51067;BME280;37112;45.892;-123.962;2023-06-19T09:29:54;101169.40;;;8.76;80.98
51067;BME280;37112;45.892;-123.962;2023-06-19T09:32:26;101168.25;;;8.74;80.90
51067;BME280;37112;45.892;-123.962;2023-06-19T09:34:59;101166.81;;;8.71;80.84
51067;BME280;37112;45.892;-123.962;2023-06-19T09:37:32;101167.80;;;8.69;80.85
51067;BME280;37112;45.892;-123.962;2023-06-19T09:40:05;101165.93;;;8.68;81.03
51067;BME280;37112;45.892;-123.962;2023-06-19T09:42:30;101169.41;;;8.66;81.14
51067;BME280;37112;45.892;-123.962;2023-06-19T09:45:06;101170.04;;;8.64;81.17
51067;BME280;37112;45.892;-123.962;2023-06-19T09:47:42;101169.35;;;8.62;81.30
51067;BME280;37112;45.892;-123.962;2023-06-19T09:50:18;101169.59;;;8.62;81.37
51067;BME280;37112;45.892;-123.962;2023-06-19T09:52:51;101170.56;;;8.60;81.52
51067;BME280;37112;45.892;-123.962;2023-06-19T09:55:25;101172.73;;;8.60;81.46
51067;BME280;37112;45.892;-123.962;2023-06-19T09:57:59;101172.09;;;8.58;81.63
51067;BME280;37112;45.892;-123.962;2023-06-19T10:00:30;101175.00;;;8.57;81.76
51067;BME280;37112;45.892;-123.962;2023-06-19T10:03:03;101176.34;;;8.55;81.78
51067;BME280;37112;45.892;-123.962;2023-06-19T10:05:35;101176.98;;;8.53;81.93
51067;BME280;37112;45.892;-123.962;2023-06-19T10:08:06;101180.59;;;8.52;82.02
51067;BME280;37112;45.892;-123.962;2023-06-19T10:10:47;101183.71;;;8.49;82.14
51067;BME280;37112;45.892;-123.962;2023-06-19T10:13:19;101181.77;;;8.50;82.32
51067;BME280;37112;45.892;-123.962;2023-06-19T10:15:52;101184.63;;;8.49;82.34
51067;BME280;37112;45.892;-123.962;2023-06-19T10:18:23;101183.38;;;8.49;82.40
51067;BME280;37112;45.892;-123.962;2023-06-19T10:20:55;101186.02;;;8.50;82.28
51067;BME280;37112;45.892;-123.962;2023-06-19T10:24:01;101180.89;;;8.49;82.51
51067;BME280;37112;45.892;-123.962;2023-06-19T10:26:35;101187.27;;;8.49;82.48
51067;BME280;37112;45.892;-123.962;2023-06-19T10:29:17;101190.73;;;8.47;82.19
51067;BME280;37112;45.892;-123.962;2023-06-19T10:31:37;101191.45;;;8.43;82.15
51067;BME280;37112;45.892;-123.962;2023-06-19T10:34:09;101194.23;;;8.41;82.30
51067;BME280;37112;45.892;-123.962;2023-06-19T10:36:41;101192.88;;;8.39;82.30
51067;BME280;37112;45.892;-123.962;2023-06-19T10:39:12;101192.91;;;8.39;82.46
51067;BME280;37112;45.892;-123.962;2023-06-19T10:41:34;101188.79;;;8.36;82.41
51067;BME280;37112;45.892;-123.962;2023-06-19T10:44:06;101189.20;;;8.35;82.49
51067;BME280;37112;45.892;-123.962;2023-06-19T10:46:43;101195.05;;;8.35;82.48
51067;BME280;37112;45.892;-123.962;2023-06-19T10:49:15;101194.04;;;8.33;82.53
51067;BME280;37112;45.892;-123.962;2023-06-19T10:51:47;101199.38;;;8.33;82.57
51067;BME280;37112;45.892;-123.962;2023-06-19T10:54:24;101197.98;;;8.32;82.54
51067;BME280;37112;45.892;-123.962;2023-06-19T10:56:56;101203.61;;;8.30;82.48
51067;BME280;37112;45.892;-123.962;2023-06-19T10:59:32;101203.70;;;8.28;82.55
51067;BME280;37112;45.892;-123.962;2023-06-19T11:02:05;101202.86;;;8.27;82.80
51067;BME280;37112;45.892;-123.962;2023-06-19T11:04:40;101203.53;;;8.28;82.96
51067;BME280;37112;45.892;-123.962;2023-06-19T11:07:12;101201.08;;;8.27;83.03
51067;BME280;37112;45.892;-123.962;2023-06-19T11:09:44;101205.71;;;8.27;83.11
51067;BME280;37112;45.892;-123.962;2023-06-19T11:12:20;101204.02;;;8.29;83.24
51067;BME280;37112;45.892;-123.962;2023-06-19T11:14:52;101205.18;;;8.30;83.42
51067;BME280;37112;45.892;-123.962;2023-06-19T11:17:28;101204.26;;;8.31;83.41
51067;BME280;37112;45.892;-123.962;2023-06-19T11:20:00;101203.54;;;8.31;83.47
51067;BME280;37112;45.892;-123.962;2023-06-19T11:22:40;101203.16;;;8.31;83.57
51067;BME280;37112;45.892;-123.962;2023-06-19T11:25:12;101203.09;;;8.29;83.36
51067;BME280;37112;45.892;-123.962;2023-06-19T11:27:44;101205.95;;;8.25;83.26
51067;BME280;37112;45.892;-123.962;2023-06-19T11:30:29;101206.65;;;8.22;83.24
51067;BME280;37112;45.892;-123.962;2023-06-19T11:33:00;101208.63;;;8.18;83.14
51067;BME280;37112;45.892;-123.962;2023-06-19T11:35:36;101208.61;;;8.15;83.19
51067;BME280;37112;45.892;-123.962;2023-06-19T11:38:07;101207.34;;;8.12;83.38
51067;BME280;37112;45.892;-123.962;2023-06-19T11:40:43;101206.35;;;8.10;83.31
51067;BME280;37112;45.892;-123.962;2023-06-19T11:43:25;101212.80;;;8.08;83.24
51067;BME280;37112;45.892;-123.962;2023-06-19T11:46:04;101210.65;;;8.05;83.31
51067;BME280;37112;45.892;-123.962;2023-06-19T11:48:41;101212.67;;;8.01;83.24
51067;BME280;37112;45.892;-123.962;2023-06-19T11:51:35;101213.09;;;7.96;83.46
51067;BME280;37112;45.892;-123.962;2023-06-19T11:53:55;101211.25;;;7.93;83.62
51067;BME280;37112;45.892;-123.962;2023-06-19T11:56:29;101210.66;;;7.91;83.77
51067;BME280;37112;45.892;-123.962;2023-06-19T11:59:00;101211.98;;;7.89;83.81
51067;BME280;37112;45.892;-123.962;2023-06-19T12:01:36;101213.39;;;7.89;83.92
51067;BME280;37112;45.892;-123.962;2023-06-19T12:04:08;101210.96;;;7.89;83.86
51067;BME280;37112;45.892;-123.962;2023-06-19T12:06:40;101210.33;;;7.87;83.88
51067;BME280;37112;45.892;-123.962;2023-06-19T12:09:11;101208.98;;;7.86;83.94
51067;BME280;37112;45.892;-123.962;2023-06-19T12:11:43;101207.11;;;7.83;83.80
51067;BME280;37112;45.892;-123.962;2023-06-19T12:14:16;101205.65;;;7.81;83.95
51067;BME280;37112;45.892;-123.962;2023-06-19T12:16:47;101211.87;;;7.80;83.93
51067;BME280;37112;45.892;-123.962;2023-06-19T12:19:18;101207.71;;;7.79;83.91
51067;BME280;37112;45.892;-123.962;2023-06-19T12:21:53;101212.56;;;7.77;83.97
51067;BME280;37112;45.892;-123.962;2023-06-19T12:24:28;101217.81;;;7.75;83.82
51067;BME280;37112;45.892;-123.962;2023-06-19T12:26:48;101216.50;;;7.73;84.05
51067;BME280;37112;45.892;-123.962;2023-06-19T12:29:20;101216.20;;;7.71;84.00
51067;BME280;37112;45.892;-123.962;2023-06-19T12:31:52;101214.07;;;7.68;84.06
51067;BME280;37112;45.892;-123.962;2023-06-19T12:34:21;101220.59;;;7.65;84.21
51067;BME280;37112;45.892;-123.962;2023-06-19T12:36:59;101220.40;;;7.61;84.07
51067;BME280;37112;45.892;-123.962;2023-06-19T12:39:14;101220.55;;;7.58;84.04
51067;BME280;37112;45.892;-123.962;2023-06-19T12:41:46;101225.27;;;7.56;84.08
51067;BME280;37112;45.892;-123.962;2023-06-19T12:44:18;101225.17;;;7.53;84.18
51067;BME280;37112;45.892;-123.962;2023-06-19T12:46:49;101229.16;;;7.51;84.25
51067;BME280;37112;45.892;-123.962;2023-06-19T12:49:20;101234.51;;;7.50;84.34